createdAt,value
2024-03-24T00:00:06.798Z,497.00
2024-03-24T00:01:06.882Z,494.00
2024-03-24T00:02:06.943Z,495.00
2024-03-24T00:03:07.046Z,494.00
2024-03-24T00:04:07.197Z,494.00
2024-03-24T00:05:07.259Z,491.00
2024-03-24T00:06:07.314Z,492.00
2024-03-24T00:07:07.449Z,491.00
2024-03-24T00:08:07.475Z,492.00
2024-03-24T00:09:07.558Z,494.00
2024-03-24T00:10:07.683Z,496.00
2024-03-24T00:11:07.866Z,498.00
2024-03-24T00:12:07.838Z,496.00
2024-03-24T00:13:07.952Z,497.00
2024-03-24T00:14:07.988Z,499.00
2024-03-24T00:15:08.096Z,500.00
2024-03-24T00:16:08.171Z,499.00
2024-03-24T00:17:08.243Z,496.00
2024-03-24T00:18:08.322Z,494.00
2024-03-24T00:19:08.419Z,492.00
2024-03-24T00:20:08.494Z,492.00
2024-03-24T00:21:08.551Z,491.00
2024-03-24T00:22:08.667Z,492.00
2024-03-24T00:23:08.724Z,492.00
2024-03-24T00:24:08.767Z,493.00
2024-03-24T00:25:08.893Z,496.00
2024-03-24T00:26:08.936Z,497.00
2024-03-24T00:27:09.018Z,495.00
2024-03-24T00:28:09.109Z,495.00
2024-03-24T00:29:09.167Z,495.00
2024-03-24T00:30:09.232Z,495.00
2024-03-24T00:31:09.376Z,496.00
2024-03-24T00:32:09.438Z,499.00
2024-03-24T00:33:09.478Z,500.00
2024-03-24T00:34:09.590Z,501.00
2024-03-24T00:35:09.650Z,500.00
2024-03-24T00:36:09.730Z,501.00
2024-03-24T00:37:09.860Z,502.00
2024-03-24T00:38:09.888Z,501.00
2024-03-24T00:39:09.980Z,500.00
2024-03-24T00:40:10.099Z,500.00
2024-03-24T00:41:10.110Z,500.00
2024-03-24T00:42:10.225Z,498.00
2024-03-24T00:43:10.321Z,497.00
2024-03-24T00:44:10.392Z,495.00
2024-03-24T00:45:10.450Z,497.00
2024-03-24T00:46:10.526Z,498.00
2024-03-24T00:47:10.612Z,498.00
2024-03-24T00:48:10.681Z,500.00
2024-03-24T00:49:10.777Z,499.00
2024-03-24T00:50:10.844Z,498.00
2024-03-24T00:51:10.952Z,497.00
2024-03-24T00:52:11.010Z,496.00
2024-03-24T00:53:11.076Z,499.00
2024-03-24T00:54:11.156Z,500.00
2024-03-24T00:55:11.243Z,497.00
2024-03-24T00:56:11.322Z,496.00
2024-03-24T00:57:11.405Z,496.00
2024-03-24T00:58:11.520Z,496.00
2024-03-24T00:59:11.573Z,498.00
2024-03-24T01:00:11.677Z,500.00
2024-03-24T01:01:11.814Z,498.00
2024-03-24T01:02:11.848Z,497.00
2024-03-24T01:03:11.971Z,500.00
2024-03-24T01:04:12.004Z,502.00
2024-03-24T01:05:12.123Z,501.00
2024-03-24T01:06:12.181Z,501.00
2024-03-24T01:07:12.268Z,502.00
2024-03-24T01:08:12.362Z,499.00
2024-03-24T01:09:12.461Z,500.00
2024-03-24T01:10:12.555Z,499.00
2024-03-24T01:11:12.629Z,498.00
2024-03-24T01:12:12.679Z,501.00
2024-03-24T01:13:12.789Z,499.00
2024-03-24T01:14:12.899Z,499.00
2024-03-24T01:15:12.969Z,502.00
2024-03-24T01:16:13.059Z,502.00
2024-03-24T01:17:13.137Z,500.00
2024-03-24T01:18:13.230Z,501.00
2024-03-24T01:19:13.305Z,501.00
2024-03-24T01:20:13.403Z,499.00
2024-03-24T01:21:13.510Z,495.00
2024-03-24T01:22:13.564Z,496.00
2024-03-24T01:23:13.642Z,495.00
2024-03-24T01:24:13.706Z,495.00
2024-03-24T01:25:13.851Z,496.00
2024-03-24T01:26:13.903Z,497.00
2024-03-24T01:27:13.987Z,498.00
2024-03-24T01:28:14.058Z,498.00
2024-03-24T01:29:14.146Z,500.00
2024-03-24T01:30:14.242Z,501.00
2024-03-24T01:31:14.293Z,503.00
2024-03-24T01:32:14.392Z,504.00
2024-03-24T01:33:14.515Z,505.00
2024-03-24T01:34:14.588Z,507.00
2024-03-24T01:35:14.665Z,506.00
2024-03-24T01:36:14.743Z,508.00
2024-03-24T01:37:14.810Z,508.00
2024-03-24T01:38:14.908Z,509.00
2024-03-24T01:39:14.974Z,508.00
2024-03-24T01:40:15.140Z,507.00
2024-03-24T01:41:15.194Z,507.00
2024-03-24T01:42:15.291Z,504.00
2024-03-24T01:43:15.368Z,503.00
2024-03-24T01:44:15.441Z,502.00
2024-03-24T01:45:15.521Z,501.00
2024-03-24T01:46:15.695Z,502.00
2024-03-24T01:47:15.721Z,502.00
2024-03-24T01:48:15.832Z,502.00
2024-03-24T01:49:15.902Z,501.00
2024-03-24T01:50:16.000Z,502.00
2024-03-24T01:51:16.055Z,502.00
2024-03-24T01:52:16.178Z,504.00
2024-03-24T01:53:16.290Z,503.00
2024-03-24T01:54:16.369Z,506.00
2024-03-24T01:55:16.465Z,506.00
2024-03-24T01:56:16.515Z,507.00
2024-03-24T01:57:16.610Z,507.00
2024-03-24T01:58:16.710Z,504.00
2024-03-24T01:59:16.789Z,503.00
2024-03-24T02:00:16.864Z,501.00
2024-03-24T02:01:16.950Z,503.00
2024-03-24T02:02:17.056Z,505.00
2024-03-24T02:03:17.109Z,507.00
2024-03-24T02:04:17.178Z,506.00
2024-03-24T02:05:17.286Z,506.00
2024-03-24T02:06:17.348Z,507.00
2024-03-24T02:07:17.453Z,510.00
2024-03-24T02:08:17.562Z,509.00
2024-03-24T02:09:17.608Z,508.00
2024-03-24T02:10:17.683Z,507.00
2024-03-24T02:11:17.772Z,507.00
2024-03-24T02:12:17.898Z,507.00
2024-03-24T02:13:18.029Z,507.00
2024-03-24T02:14:18.120Z,508.00
2024-03-24T02:15:18.196Z,509.00
2024-03-24T02:16:18.271Z,506.00
2024-03-24T02:17:18.347Z,506.00
2024-03-24T02:18:18.495Z,505.00
2024-03-24T02:19:18.545Z,505.00
2024-03-24T02:20:18.629Z,503.00
2024-03-24T02:21:18.723Z,501.00
2024-03-24T02:22:18.829Z,500.00
2024-03-24T02:23:18.880Z,500.00
2024-03-24T02:24:18.993Z,496.00
2024-03-24T02:25:19.058Z,497.00
2024-03-24T02:26:19.134Z,496.00
2024-03-24T02:27:19.224Z,497.00
2024-03-24T02:28:19.349Z,501.00
2024-03-24T02:29:19.434Z,501.00
2024-03-24T02:30:19.495Z,502.00
2024-03-24T02:31:19.574Z,501.00
2024-03-24T02:32:19.654Z,501.00
2024-03-24T02:33:19.772Z,499.00
2024-03-24T02:34:19.841Z,502.00
2024-03-24T02:35:19.911Z,501.00
2024-03-24T02:36:20.000Z,499.00
2024-03-24T02:37:20.065Z,497.00
2024-03-24T02:38:20.159Z,499.00
2024-03-24T02:39:20.250Z,500.00
2024-03-24T02:40:20.378Z,500.00
2024-03-24T02:41:20.418Z,501.00
2024-03-24T02:42:20.496Z,500.00
2024-03-24T02:43:20.584Z,503.00
2024-03-24T02:44:20.695Z,502.00
2024-03-24T02:45:20.772Z,504.00
2024-03-24T02:46:20.852Z,505.00
2024-03-24T02:47:21.480Z,504.00
2024-03-24T02:48:21.022Z,506.00
2024-03-24T02:49:21.092Z,504.00
2024-03-24T02:50:21.213Z,505.00
2024-03-24T02:51:21.250Z,506.00
2024-03-24T02:52:21.363Z,506.00
2024-03-24T02:53:21.439Z,505.00
2024-03-24T02:54:21.514Z,505.00
2024-03-24T02:55:21.607Z,504.00
2024-03-24T02:56:21.667Z,505.00
2024-03-24T02:57:21.724Z,505.00
2024-03-24T02:58:21.952Z,505.00
2024-03-24T02:59:21.917Z,506.00
2024-03-24T03:00:22.051Z,504.00
2024-03-24T03:01:22.106Z,506.00
2024-03-24T03:02:22.169Z,509.00
2024-03-24T03:03:22.295Z,508.00
2024-03-24T03:04:22.383Z,507.00
2024-03-24T03:05:22.447Z,509.00
2024-03-24T03:06:22.545Z,510.00
2024-03-24T03:07:22.673Z,509.00
2024-03-24T03:08:22.745Z,507.00
2024-03-24T03:09:22.796Z,508.00
2024-03-24T03:10:22.920Z,506.00
2024-03-24T03:11:22.999Z,507.00
2024-03-24T03:12:23.090Z,504.00
2024-03-24T03:13:23.214Z,505.00
2024-03-24T03:14:23.245Z,504.00
2024-03-24T03:15:23.335Z,499.00
2024-03-24T03:16:23.432Z,501.00
2024-03-24T03:17:23.626Z,499.00
2024-03-24T03:18:23.644Z,501.00
2024-03-24T03:19:23.727Z,501.00
2024-03-24T03:20:23.794Z,502.00
2024-03-24T03:21:23.885Z,501.00
2024-03-24T03:22:23.958Z,502.00
2024-03-24T03:23:24.070Z,500.00
2024-03-24T03:24:24.131Z,498.00
2024-03-24T03:25:24.240Z,497.00
2024-03-24T03:26:24.280Z,497.00
2024-03-24T03:27:24.473Z,501.00
2024-03-24T03:28:24.465Z,497.00
2024-03-24T03:29:24.545Z,500.00
2024-03-24T03:30:24.635Z,505.00
2024-03-24T03:31:24.708Z,508.00
2024-03-24T03:32:24.860Z,506.00
2024-03-24T03:33:24.976Z,505.00
2024-03-24T03:34:24.939Z,507.00
2024-03-24T03:35:25.038Z,505.00
2024-03-24T03:36:25.121Z,503.00
2024-03-24T03:37:25.170Z,503.00
2024-03-24T03:38:25.263Z,504.00
2024-03-24T03:39:25.331Z,501.00
2024-03-24T03:40:25.411Z,500.00
2024-03-24T03:41:25.510Z,497.00
2024-03-24T03:42:25.583Z,498.00
2024-03-24T03:43:25.676Z,497.00
2024-03-24T03:44:25.759Z,498.00
2024-03-24T03:45:25.813Z,499.00
2024-03-24T03:46:25.896Z,500.00
2024-03-24T03:47:25.990Z,499.00
2024-03-24T03:48:26.201Z,499.00
2024-03-24T03:49:26.164Z,502.00
2024-03-24T03:50:26.222Z,501.00
2024-03-24T03:51:26.312Z,499.00
2024-03-24T03:52:26.465Z,499.00
2024-03-24T03:53:26.568Z,501.00
2024-03-24T03:54:26.631Z,502.00
2024-03-24T03:55:26.728Z,504.00
2024-03-24T03:56:26.818Z,502.00
2024-03-24T03:57:26.922Z,504.00
2024-03-24T03:58:26.968Z,504.00
2024-03-24T03:59:27.052Z,506.00
2024-03-24T04:00:27.134Z,508.00
2024-03-24T04:01:27.188Z,509.00
2024-03-24T04:02:27.298Z,510.00
2024-03-24T04:03:27.492Z,509.00
2024-03-24T04:04:27.447Z,507.00
2024-03-24T04:05:27.526Z,507.00
2024-03-24T04:06:27.622Z,509.00
2024-03-24T04:07:27.745Z,506.00
2024-03-24T04:08:27.770Z,509.00
2024-03-24T04:09:27.863Z,511.00
2024-03-24T04:10:27.910Z,509.00
2024-03-24T04:11:27.993Z,509.00
2024-03-24T04:12:28.080Z,506.00
2024-03-24T04:13:28.163Z,507.00
2024-03-24T04:14:28.236Z,508.00
2024-03-24T04:15:28.307Z,509.00
2024-03-24T04:16:28.398Z,512.00
2024-03-24T04:17:28.589Z,515.00
2024-03-24T04:18:28.570Z,516.00
2024-03-24T04:19:28.650Z,517.00
2024-03-24T04:20:28.743Z,519.00
2024-03-24T04:21:28.840Z,521.00
2024-03-24T04:22:28.919Z,517.00
2024-03-24T04:23:29.004Z,517.00
2024-03-24T04:24:29.062Z,515.00
2024-03-24T04:25:29.171Z,513.00
2024-03-24T04:26:29.246Z,513.00
2024-03-24T04:27:29.323Z,512.00
2024-03-24T04:28:29.400Z,512.00
2024-03-24T04:29:29.461Z,514.00
2024-03-24T04:30:29.564Z,516.00
2024-03-24T04:31:29.620Z,517.00
2024-03-24T04:32:29.731Z,515.00
2024-03-24T04:33:29.842Z,515.00
2024-03-24T04:34:29.872Z,518.00
2024-03-24T04:35:30.037Z,518.00
2024-03-24T04:36:30.104Z,516.00
2024-03-24T04:37:30.196Z,513.00
2024-03-24T04:38:30.266Z,512.00
2024-03-24T04:39:30.307Z,511.00
2024-03-24T04:40:30.406Z,509.00
2024-03-24T04:41:37.697Z,519.00
2024-03-24T04:42:37.676Z,512.00
2024-03-24T04:43:37.680Z,508.00
2024-03-24T04:44:37.686Z,508.00
2024-03-24T04:45:37.696Z,507.00
2024-03-24T04:46:37.669Z,507.00
2024-03-24T04:47:37.672Z,504.00
2024-03-24T04:48:37.676Z,506.00
2024-03-24T04:49:37.676Z,508.00
2024-03-24T04:50:37.692Z,506.00
2024-03-24T04:51:37.668Z,507.00
2024-03-24T04:52:37.682Z,503.00
2024-03-24T04:53:37.712Z,504.00
2024-03-24T04:54:37.704Z,505.00
2024-03-24T04:55:37.692Z,503.00
2024-03-24T04:56:37.682Z,504.00
2024-03-24T04:57:37.703Z,505.00
2024-03-24T04:58:37.722Z,505.00
2024-03-24T04:59:37.696Z,507.00
2024-03-24T05:00:37.704Z,511.00
2024-03-24T05:01:37.699Z,511.00
2024-03-24T05:02:37.723Z,510.00
2024-03-24T05:03:37.687Z,510.00
2024-03-24T05:04:37.720Z,511.00
2024-03-24T05:05:37.725Z,512.00
2024-03-24T05:06:37.700Z,513.00
2024-03-24T05:07:37.708Z,512.00
2024-03-24T05:08:37.757Z,512.00
2024-03-24T05:09:37.701Z,510.00
2024-03-24T05:10:37.704Z,509.00
2024-03-24T05:11:37.718Z,511.00
2024-03-24T05:12:37.708Z,512.00
2024-03-24T05:13:37.731Z,510.00
2024-03-24T05:14:37.744Z,512.00
2024-03-24T05:15:37.744Z,512.00
2024-03-24T05:16:37.764Z,513.00
2024-03-24T05:17:37.742Z,512.00
2024-03-24T05:18:37.751Z,512.00
2024-03-24T05:19:37.730Z,513.00
2024-03-24T05:20:37.727Z,515.00
2024-03-24T05:21:37.735Z,516.00
2024-03-24T05:22:37.751Z,520.00
2024-03-24T05:23:37.751Z,519.00
2024-03-24T05:24:37.722Z,519.00
2024-03-24T05:25:37.742Z,518.00
2024-03-24T05:26:37.738Z,517.00
2024-03-24T05:27:37.730Z,519.00
2024-03-24T05:28:46.536Z,518.00
2024-03-24T05:29:38.772Z,512.00
2024-03-24T05:30:37.751Z,511.00
2024-03-24T05:31:37.748Z,511.00
2024-03-24T05:32:37.740Z,510.00
2024-03-24T05:33:37.821Z,511.00
2024-03-24T05:34:37.821Z,510.00
2024-03-24T05:35:37.807Z,508.00
2024-03-24T05:36:37.807Z,509.00
2024-03-24T05:37:37.822Z,507.00
2024-03-24T05:38:37.799Z,509.00
2024-03-24T05:39:38.842Z,507.00
2024-03-24T05:40:37.918Z,510.00
2024-03-24T05:41:37.972Z,511.00
2024-03-24T05:42:37.977Z,511.00
2024-03-24T05:43:38.041Z,513.00
2024-03-24T05:44:38.108Z,514.00
2024-03-24T05:45:38.105Z,514.00
2024-03-24T05:46:38.140Z,516.00
2024-03-24T05:47:38.187Z,517.00
2024-03-24T05:48:38.236Z,517.00
2024-03-24T05:49:38.321Z,516.00
2024-03-24T05:50:38.374Z,517.00
2024-03-24T05:51:38.462Z,518.00
2024-03-24T05:52:38.526Z,518.00
2024-03-24T05:53:38.609Z,518.00
2024-03-24T05:54:38.712Z,516.00
2024-03-24T05:55:38.791Z,516.00
2024-03-24T05:56:38.887Z,516.00
2024-03-24T05:57:38.949Z,517.00
2024-03-24T05:58:39.043Z,515.00
2024-03-24T05:59:39.125Z,516.00
2024-03-24T06:00:39.196Z,516.00
2024-03-24T06:01:40.098Z,514.00
2024-03-24T06:02:39.361Z,512.00
2024-03-24T06:03:39.412Z,510.00
2024-03-24T06:04:39.475Z,511.00
2024-03-24T06:05:39.504Z,511.00
2024-03-24T06:06:39.546Z,511.00
2024-03-24T06:07:39.580Z,512.00
2024-03-24T06:08:39.618Z,512.00
2024-03-24T06:09:39.676Z,513.00
2024-03-24T06:10:39.760Z,513.00
2024-03-24T06:11:39.821Z,516.00
2024-03-24T06:12:39.835Z,519.00
2024-03-24T06:13:39.863Z,518.00
2024-03-24T06:14:39.981Z,518.00
2024-03-24T06:15:40.059Z,518.00
2024-03-24T06:16:40.103Z,519.00
2024-03-24T06:17:40.232Z,519.00
2024-03-24T06:18:40.299Z,518.00
2024-03-24T06:19:40.392Z,514.00
2024-03-24T06:20:40.446Z,513.00
2024-03-24T06:21:40.549Z,513.00
2024-03-24T06:22:40.654Z,514.00
2024-03-24T06:23:40.718Z,515.00
2024-03-24T06:24:40.785Z,515.00
2024-03-24T06:25:40.870Z,514.00
2024-03-24T06:26:40.971Z,515.00
2024-03-24T06:27:41.076Z,512.00
2024-03-24T06:28:41.166Z,513.00
2024-03-24T06:29:41.205Z,512.00
2024-03-24T06:30:41.330Z,512.00
2024-03-24T06:31:43.850Z,511.00
2024-03-24T06:32:41.397Z,513.00
2024-03-24T06:33:41.394Z,514.00
2024-03-24T06:34:41.410Z,514.00
2024-03-24T06:35:41.420Z,511.00
2024-03-24T06:36:41.381Z,515.00
2024-03-24T06:37:41.398Z,514.00
2024-03-24T06:38:41.390Z,513.00
2024-03-24T06:39:41.395Z,514.00
2024-03-24T06:40:41.391Z,514.00
2024-03-24T06:41:41.410Z,515.00
2024-03-24T06:42:41.385Z,515.00
2024-03-24T06:43:41.404Z,515.00
2024-03-24T06:44:41.425Z,514.00
2024-03-24T06:45:41.419Z,512.00
2024-03-24T06:46:41.411Z,510.00
2024-03-24T06:47:41.446Z,509.00
2024-03-24T06:48:41.430Z,507.00
2024-03-24T06:49:41.479Z,507.00
2024-03-24T06:50:41.415Z,510.00
2024-03-24T06:51:41.423Z,510.00
2024-03-24T06:52:41.440Z,509.00
2024-03-24T06:53:41.428Z,508.00
2024-03-24T06:54:41.451Z,511.00
2024-03-24T06:55:41.458Z,514.00
2024-03-24T06:56:41.454Z,511.00
2024-03-24T06:57:41.461Z,511.00
2024-03-24T06:58:41.465Z,511.00
2024-03-24T06:59:41.433Z,507.00
2024-03-24T07:00:41.471Z,506.00
2024-03-24T07:01:41.444Z,508.00
2024-03-24T07:02:41.452Z,511.00
2024-03-24T07:03:41.515Z,512.00
2024-03-24T07:04:41.554Z,512.00
2024-03-24T07:05:41.660Z,513.00
2024-03-24T07:06:41.728Z,515.00
2024-03-24T07:07:41.831Z,513.00
2024-03-24T07:08:41.910Z,512.00
2024-03-24T07:09:41.985Z,513.00
2024-03-24T07:10:42.118Z,513.00
2024-03-24T07:11:42.204Z,513.00
2024-03-24T07:12:42.305Z,513.00
2024-03-24T07:13:42.355Z,515.00
2024-03-24T07:14:42.423Z,516.00
2024-03-24T07:15:42.619Z,513.00
2024-03-24T07:16:42.629Z,513.00
2024-03-24T07:17:42.777Z,512.00
2024-03-24T07:18:42.789Z,511.00
2024-03-24T07:19:42.871Z,510.00
2024-03-24T07:20:42.962Z,507.00
2024-03-24T07:21:43.057Z,508.00
2024-03-24T07:22:43.227Z,507.00
2024-03-24T07:23:43.321Z,506.00
2024-03-24T07:24:43.417Z,507.00
2024-03-24T07:25:43.492Z,507.00
2024-03-24T07:26:43.555Z,507.00
2024-03-24T07:27:43.667Z,504.00
2024-03-24T07:28:43.801Z,504.00
2024-03-24T07:29:43.834Z,504.00
2024-03-24T07:30:43.933Z,506.00
2024-03-24T07:31:44.052Z,506.00
2024-03-24T07:32:44.118Z,506.00
2024-03-24T07:33:44.223Z,507.00
2024-03-24T07:34:44.294Z,504.00
2024-03-24T07:35:44.376Z,505.00
2024-03-24T07:36:44.469Z,506.00
2024-03-24T07:37:44.561Z,503.00
2024-03-24T07:38:44.667Z,504.00
2024-03-24T07:39:44.734Z,499.00
2024-03-24T07:40:44.869Z,499.00
2024-03-24T07:41:47.720Z,497.00
2024-03-24T07:42:44.998Z,496.00
2024-03-24T07:43:44.976Z,496.00
2024-03-24T07:44:44.994Z,497.00
2024-03-24T07:45:44.990Z,498.00
2024-03-24T07:46:44.982Z,496.00
2024-03-24T07:47:44.989Z,495.00
2024-03-24T07:49:45.000Z,497.00
2024-03-24T07:50:44.972Z,499.00
2024-03-24T07:51:44.995Z,499.00
2024-03-24T07:52:44.983Z,498.00
2024-03-24T07:53:44.991Z,500.00
2024-03-24T07:54:44.986Z,503.00
2024-03-24T07:55:44.999Z,504.00
2024-03-24T07:56:45.030Z,504.00
2024-03-24T07:57:45.001Z,505.00
2024-03-24T07:58:45.007Z,503.00
2024-03-24T07:59:44.990Z,504.00
2024-03-24T08:00:45.020Z,504.00
2024-03-24T08:01:45.002Z,503.00
2024-03-24T08:02:45.034Z,503.00
2024-03-24T08:03:45.015Z,504.00
2024-03-24T08:04:45.010Z,504.00
2024-03-24T08:05:45.023Z,505.00
2024-03-24T08:06:45.039Z,506.00
2024-03-24T08:07:45.026Z,507.00
2024-03-24T08:08:45.097Z,506.00
2024-03-24T08:09:45.032Z,504.00
2024-03-24T08:10:45.091Z,503.00
2024-03-24T08:11:45.035Z,503.00
2024-03-24T08:12:45.039Z,502.00
2024-03-24T08:13:45.047Z,501.00
2024-03-24T08:14:45.052Z,500.00
2024-03-24T08:15:45.038Z,499.00
2024-03-24T08:16:45.024Z,498.00
2024-03-24T08:17:45.043Z,499.00
2024-03-24T08:18:45.055Z,497.00
2024-03-24T08:19:45.050Z,498.00
2024-03-24T08:20:45.107Z,499.00
2024-03-24T08:21:45.120Z,500.00
2024-03-24T08:22:45.147Z,501.00
2024-03-24T08:23:45.205Z,500.00
2024-03-24T08:24:45.248Z,501.00
2024-03-24T08:25:45.306Z,498.00
2024-03-24T08:26:45.436Z,497.00
2024-03-24T08:27:45.493Z,496.00
2024-03-24T08:28:45.614Z,496.00
2024-03-24T08:29:45.709Z,496.00
2024-03-24T08:30:45.751Z,497.00
2024-03-24T08:31:45.843Z,499.00
2024-03-24T08:32:45.931Z,503.00
2024-03-24T08:33:46.038Z,503.00
2024-03-24T08:34:46.148Z,503.00
2024-03-24T08:35:46.238Z,503.00
2024-03-24T08:36:46.305Z,503.00
2024-03-24T08:37:46.427Z,501.00
2024-03-24T08:38:46.481Z,502.00
2024-03-24T08:39:46.530Z,503.00
2024-03-24T08:40:46.636Z,500.00
2024-03-24T08:41:46.809Z,503.00
2024-03-24T08:42:46.819Z,502.00
2024-03-24T08:43:46.912Z,501.00
2024-03-24T08:44:47.016Z,502.00
2024-03-24T08:45:47.102Z,502.00
2024-03-24T08:46:47.201Z,503.00
2024-03-24T08:47:47.288Z,505.00
2024-03-24T08:48:47.429Z,505.00
2024-03-24T08:49:47.460Z,502.00
2024-03-24T08:50:47.573Z,502.00
2024-03-24T08:51:47.628Z,502.00
2024-03-24T08:52:47.724Z,502.00
2024-03-24T08:53:47.824Z,502.00
2024-03-24T08:54:47.917Z,503.00
2024-03-24T08:55:47.999Z,504.00
2024-03-24T08:56:48.087Z,503.00
2024-03-24T08:57:48.193Z,502.00
2024-03-24T08:58:48.297Z,502.00
2024-03-24T08:59:48.366Z,502.00
2024-03-24T09:00:48.463Z,502.00
2024-03-24T09:01:48.565Z,501.00
2024-03-24T09:02:48.633Z,500.00
2024-03-24T09:03:48.703Z,499.00
2024-03-24T09:04:48.796Z,499.00
2024-03-24T09:05:48.889Z,500.00
2024-03-24T09:06:48.960Z,500.00
2024-03-24T09:07:49.092Z,500.00
2024-03-24T09:08:49.183Z,499.00
2024-03-24T09:09:49.264Z,499.00
2024-03-24T09:10:49.362Z,497.00
2024-03-24T09:11:49.445Z,496.00
2024-03-24T09:12:49.511Z,497.00
2024-03-24T09:13:49.631Z,494.00
2024-03-24T09:14:49.710Z,496.00
2024-03-24T09:15:49.787Z,496.00
2024-03-24T09:16:49.860Z,497.00
2024-03-24T09:17:49.956Z,495.00
2024-03-24T09:18:50.042Z,494.00
2024-03-24T09:19:50.139Z,494.00
2024-03-24T09:20:50.184Z,496.00
2024-03-24T09:21:50.294Z,496.00
2024-03-24T09:22:50.352Z,496.00
2024-03-24T09:23:52.859Z,499.00
2024-03-24T09:24:50.451Z,499.00
2024-03-24T09:25:50.473Z,495.00
2024-03-24T09:26:50.463Z,492.00
2024-03-24T09:27:50.475Z,493.00
2024-03-24T09:28:50.477Z,493.00
2024-03-24T09:29:50.478Z,497.00
2024-03-24T09:30:50.502Z,497.00
2024-03-24T09:31:50.479Z,495.00
2024-03-24T09:32:50.467Z,494.00
2024-03-24T09:33:50.479Z,493.00
2024-03-24T09:34:53.597Z,492.00
2024-03-24T09:35:51.485Z,492.00
2024-03-24T09:36:50.504Z,494.00
2024-03-24T09:37:50.508Z,494.00
2024-03-24T09:38:50.496Z,492.00
2024-03-24T09:39:50.490Z,491.00
2024-03-24T09:40:50.537Z,489.00
2024-03-24T09:41:50.541Z,487.00
2024-03-24T09:42:50.548Z,486.00
2024-03-24T09:43:50.536Z,489.00
2024-03-24T09:44:50.591Z,487.00
2024-03-24T09:45:50.553Z,486.00
2024-03-24T09:46:50.618Z,486.00
2024-03-24T09:47:50.724Z,488.00
2024-03-24T09:48:50.777Z,487.00
2024-03-24T09:49:50.850Z,484.00
2024-03-24T09:50:50.962Z,485.00
2024-03-24T09:51:51.023Z,487.00
2024-03-24T09:52:51.113Z,485.00
2024-03-24T09:53:51.172Z,486.00
2024-03-24T09:54:51.272Z,487.00
2024-03-24T09:55:51.350Z,488.00
2024-03-24T09:56:51.455Z,489.00
2024-03-24T09:57:57.182Z,490.00
2024-03-24T09:58:52.542Z,489.00
2024-03-24T09:59:51.524Z,490.00
2024-03-24T10:00:51.528Z,494.00
2024-03-24T10:01:51.534Z,496.00
2024-03-24T10:02:51.543Z,497.00
2024-03-24T10:03:51.550Z,495.00
2024-03-24T10:04:51.544Z,495.00
2024-03-24T10:05:51.547Z,496.00
2024-03-24T10:06:51.551Z,495.00
2024-03-24T10:07:51.529Z,496.00
2024-03-24T10:08:51.598Z,496.00
2024-03-24T10:09:51.690Z,502.00
2024-03-24T10:10:51.806Z,502.00
2024-03-24T10:11:51.882Z,501.00
2024-03-24T10:12:51.937Z,500.00
2024-03-24T10:13:52.103Z,498.00
2024-03-24T10:14:52.171Z,499.00
2024-03-24T10:15:52.240Z,498.00
2024-03-24T10:16:52.301Z,497.00
2024-03-24T10:17:52.427Z,496.00
2024-03-24T10:18:52.492Z,496.00
2024-03-24T10:19:52.603Z,498.00
2024-03-24T10:20:52.712Z,497.00
2024-03-24T10:21:52.889Z,499.00
2024-03-24T10:22:52.891Z,498.00
2024-03-24T10:23:52.978Z,498.00
2024-03-24T10:24:53.074Z,500.00
2024-03-24T10:25:53.166Z,497.00
2024-03-24T10:26:53.247Z,497.00
2024-03-24T10:27:53.332Z,496.00
2024-03-24T10:28:53.422Z,496.00
2024-03-24T10:29:53.519Z,494.00
2024-03-24T10:30:53.592Z,497.00
2024-03-24T10:31:53.692Z,499.00
2024-03-24T10:32:53.784Z,497.00
2024-03-24T10:33:53.853Z,497.00
2024-03-24T10:34:53.943Z,497.00
2024-03-24T10:35:54.068Z,500.00
2024-03-24T10:36:54.110Z,501.00
2024-03-24T10:37:54.224Z,502.00
2024-03-24T10:38:54.331Z,504.00
2024-03-24T10:39:54.369Z,503.00
2024-03-24T10:40:55.114Z,504.00
2024-03-24T10:41:54.552Z,503.00
2024-03-24T10:42:54.562Z,505.00
2024-03-24T10:43:54.597Z,505.00
2024-03-24T10:44:54.674Z,504.00
2024-03-24T10:45:54.675Z,501.00
2024-03-24T10:46:54.750Z,502.00
2024-03-24T10:47:54.777Z,503.00
2024-03-24T10:48:54.808Z,501.00
2024-03-24T10:49:54.841Z,500.00
2024-03-24T10:50:54.879Z,503.00
2024-03-24T10:51:54.923Z,503.00
2024-03-24T10:52:56.238Z,506.00
2024-03-24T10:53:55.113Z,505.00
2024-03-24T10:54:55.171Z,501.00
2024-03-24T10:55:55.166Z,501.00
2024-03-24T10:56:55.188Z,500.00
2024-03-24T10:57:55.243Z,503.00
2024-03-24T10:58:55.319Z,503.00
2024-03-24T10:59:55.354Z,503.00
2024-03-24T11:00:55.359Z,502.00
2024-03-24T11:01:55.420Z,503.00
2024-03-24T11:02:55.432Z,502.00
2024-03-24T11:03:55.490Z,504.00
2024-03-24T11:04:55.529Z,505.00
2024-03-24T11:05:55.549Z,505.00
2024-03-24T11:06:55.647Z,507.00
2024-03-24T11:07:55.762Z,507.00
2024-03-24T11:08:55.835Z,508.00
2024-03-24T11:09:55.940Z,508.00
2024-03-24T11:10:56.045Z,507.00
2024-03-24T11:11:56.146Z,510.00
2024-03-24T11:12:56.223Z,511.00
2024-03-24T11:13:56.333Z,511.00
2024-03-24T11:14:56.419Z,509.00
2024-03-24T11:15:56.530Z,507.00
2024-03-24T11:16:56.619Z,508.00
2024-03-24T11:17:56.743Z,507.00
2024-03-24T11:18:57.271Z,504.00
2024-03-24T11:19:56.966Z,503.00
2024-03-24T11:20:57.084Z,501.00
2024-03-24T11:21:57.147Z,500.00
2024-03-24T11:22:57.252Z,496.00
2024-03-24T11:23:57.304Z,499.00
2024-03-24T11:24:57.407Z,500.00
2024-03-24T11:25:57.524Z,501.00
2024-03-24T11:26:57.622Z,500.00
2024-03-24T11:27:57.735Z,498.00
2024-03-24T11:28:57.839Z,496.00
2024-03-24T11:29:57.909Z,497.00
2024-03-24T11:30:58.018Z,501.00
2024-03-24T11:31:58.105Z,501.00
2024-03-24T11:32:58.176Z,502.00
2024-03-24T11:33:58.292Z,499.00
2024-03-24T11:34:58.419Z,498.00
2024-03-24T11:35:58.466Z,499.00
2024-03-24T11:36:58.572Z,498.00
2024-03-24T11:37:58.685Z,501.00
2024-03-24T11:38:58.754Z,500.00
2024-03-24T11:39:58.902Z,500.00
2024-03-24T11:40:58.979Z,499.00
2024-03-24T11:41:59.071Z,502.00
2024-03-24T11:42:59.176Z,503.00
2024-03-24T11:43:59.289Z,504.00
2024-03-24T11:44:59.391Z,504.00
2024-03-24T11:45:59.494Z,503.00
2024-03-24T11:46:59.609Z,501.00
2024-03-24T11:47:59.681Z,502.00
2024-03-24T11:48:59.762Z,502.00
2024-03-24T11:49:59.886Z,505.00
2024-03-24T11:50:59.955Z,508.00
2024-03-24T11:52:00.085Z,507.00
2024-03-24T11:53:00.177Z,509.00
2024-03-24T11:54:00.268Z,509.00
2024-03-24T11:55:00.375Z,510.00
2024-03-24T11:56:00.486Z,513.00
2024-03-24T11:57:00.575Z,513.00
2024-03-24T11:58:00.667Z,513.00
2024-03-24T11:59:00.764Z,514.00
2024-03-24T12:00:00.877Z,512.00
2024-03-24T12:01:00.978Z,510.00
2024-03-24T12:02:01.043Z,508.00
2024-03-24T12:03:01.171Z,507.00
2024-03-24T12:04:01.247Z,511.00
2024-03-24T12:05:01.442Z,512.00
2024-03-24T12:06:01.497Z,512.00
2024-03-24T12:07:01.545Z,511.00
2024-03-24T12:08:01.650Z,507.00
2024-03-24T12:09:01.747Z,508.00
2024-03-24T12:10:01.887Z,508.00
2024-03-24T12:11:01.975Z,505.00
2024-03-24T12:12:02.045Z,503.00
2024-03-24T12:13:02.196Z,502.00
2024-03-24T12:14:02.300Z,501.00
2024-03-24T12:15:02.410Z,500.00
2024-03-24T12:16:02.517Z,501.00
2024-03-24T12:17:02.600Z,500.00
2024-03-24T12:18:02.686Z,500.00
2024-03-24T12:19:02.807Z,503.00
2024-03-24T12:20:02.931Z,505.00
2024-03-24T12:21:03.995Z,505.00
2024-03-24T12:22:03.135Z,503.00
2024-03-24T12:23:03.208Z,504.00
2024-03-24T12:24:03.291Z,506.00
2024-03-24T12:25:03.407Z,504.00
2024-03-24T12:26:03.517Z,502.00
2024-03-24T12:27:03.571Z,501.00
2024-03-24T12:28:03.694Z,503.00
2024-03-24T12:29:03.771Z,503.00
2024-03-24T12:30:03.827Z,503.00